Time;durP1;ratioP1;P1;durP2;ratioP2;P2;SDS_P1;SDS_P2;PMS_P1;PMS_P2;Temp;Humidity;BMP_temperature;BMP_pressure;BME280_temperature;BME280_humidity;BME280_pressure;Samples;Min_cycle;Max_cycle;Signal;HPM_P1;HPM_P2
2022/05/03 00:01:03;;;;;;;59.60;3.90;;;;;;;;;;5093818;28;20504;-77
2022/05/03 00:03:33;;;;;;;59.07;2.90;;;;;;;;;;5094333;28;20888;-77
2022/05/03 00:06:06;;;;;;;58.93;3.07;;;;;;;;;;5094375;28;20534;-77
2022/05/03 00:08:37;;;;;;;58.97;3.03;;;;;;;;;;5093713;28;20443;-77
2022/05/03 00:11:09;;;;;;;60.27;4.50;;;;;;;;;;5094004;28;20466;-77
2022/05/03 00:13:38;;;;;;;58.67;3.27;;;;;;;;;;5093812;28;20446;-77
2022/05/03 00:16:06;;;;;;;58.93;3.50;;;;;;;;;;5094266;28;20571;-77
2022/05/03 00:18:33;;;;;;;60.47;5.23;;;;;;;;;;5093507;28;20525;-77
2022/05/03 00:21:00;;;;;;;58.87;3.20;;;;;;;;;;5092793;28;20470;-77
2022/05/03 00:23:29;;;;;;;58.87;3.20;;;;;;;;;;5071907;28;20469;-77
2022/05/03 00:25:56;;;;;;;59.07;2.93;;;;;;;;;;5073499;28;20475;-77
2022/05/03 00:28:24;;;;;;;61.50;5.30;;;;;;;;;;5073049;28;20447;-77
2022/05/03 00:30:51;;;;;;;58.77;3.07;;;;;;;;;;5073457;28;20502;-77
2022/05/03 00:33:18;;;;;;;58.90;3.00;;;;;;;;;;5073389;28;20530;-77
2022/05/03 00:35:45;;;;;;;59.17;2.70;;;;;;;;;;5081511;28;20537;-77
2022/05/03 00:38:12;;;;;;;58.93;2.90;;;;;;;;;;5072450;28;20483;-77
2022/05/03 00:40:44;;;;;;;58.67;3.00;;;;;;;;;;5072937;28;20463;-77
2022/05/03 00:43:13;;;;;;;58.73;3.10;;;;;;;;;;5073027;28;20458;-77
2022/05/03 00:45:44;;;;;;;58.90;3.20;;;;;;;;;;5073225;28;20451;-77
2022/05/03 00:48:16;;;;;;;58.87;3.03;;;;;;;;;;5072904;28;20443;-77
2022/05/03 00:50:44;;;;;;;58.90;3.10;;;;;;;;;;5072854;28;20481;-76
2022/05/03 00:53:14;;;;;;;58.57;3.00;;;;;;;;;;5069006;28;20546;-77
2022/05/03 00:55:52;;;;;;;58.97;3.10;;;;;;;;;;5072980;28;20449;-77
2022/05/03 00:58:23;;;;;;;58.67;3.10;;;;;;;;;;5072377;28;20478;-77
2022/05/03 01:00:55;;;;;;;59.07;3.27;;;;;;;;;;5072987;28;20475;-77
2022/05/03 01:03:27;;;;;;;58.77;3.13;;;;;;;;;;5072657;28;20547;-77
2022/05/03 01:06:01;;;;;;;58.70;3.00;;;;;;;;;;5073012;28;20853;-77
2022/05/03 01:08:30;;;;;;;59.30;3.63;;;;;;;;;;5072008;28;20541;-77
2022/05/03 01:11:09;;;;;;;59.60;3.87;;;;;;;;;;5072635;28;20505;-77
2022/05/03 01:13:38;;;;;;;58.77;3.20;;;;;;;;;;5072467;28;20457;-77
2022/05/03 01:16:07;;;;;;;59.00;3.30;;;;;;;;;;5072367;28;20530;-77
2022/05/03 01:18:38;;;;;;;58.57;2.90;;;;;;;;;;5072186;28;20486;-77
2022/05/03 01:21:08;;;;;;;59.10;3.07;;;;;;;;;;5072573;28;20490;-77
2022/05/03 01:23:51;;;;;;;58.63;2.87;;;;;;;;;;5072396;28;20451;-77
2022/05/03 01:26:39;;;;;;;58.87;3.47;;;;;;;;;;5087330;28;20454;-76
2022/05/03 01:29:20;;;;;;;61.97;3.27;;;;;;;;;;5066296;28;20465;-77
2022/05/03 01:31:48;;;;;;;58.80;2.80;;;;;;;;;;5092624;28;20489;-77
2022/05/03 01:34:18;;;;;;;58.77;2.97;;;;;;;;;;5092445;28;20439;-77
2022/05/03 01:36:48;;;;;;;58.57;2.77;;;;;;;;;;5092241;28;20489;-77
2022/05/03 01:39:17;;;;;;;59.10;4.13;;;;;;;;;;5092016;28;20474;-77
2022/05/03 01:41:48;;;;;;;59.37;3.30;;;;;;;;;;5092551;28;20887;-77
2022/05/03 01:44:22;;;;;;;58.90;3.20;;;;;;;;;;5070556;28;20455;-77
2022/05/03 01:46:52;;;;;;;59.20;3.33;;;;;;;;;;5072290;28;20442;-77
2022/05/03 01:52:21;;;;;;;59.10;3.53;;;;;;;;;;5072076;28;20949;-77
2022/05/03 01:55:18;;;;;;;58.67;2.77;;;;;;;;;;5070495;28;20450;-76
2022/05/03 01:57:50;;;;;;;58.97;2.90;;;;;;;;;;5023525;28;20488;-77
2022/05/03 02:00:20;;;;;;;59.00;2.93;;;;;;;;;;5079306;28;20749;-77
2022/05/03 02:02:54;;;;;;;58.87;3.07;;;;;;;;;;5092419;28;20482;-76
2022/05/03 02:05:25;;;;;;;58.87;2.83;;;;;;;;;;5091803;28;20460;-77
2022/05/03 02:07:55;;;;;;;59.20;2.97;;;;;;;;;;5091570;28;20450;-77
2022/05/03 02:10:32;;;;;;;58.90;3.13;;;;;;;;;;5097245;28;20453;-76
2022/05/03 02:13:01;;;;;;;58.83;2.77;;;;;;;;;;5093674;28;20531;-77
2022/05/03 02:15:36;;;;;;;58.97;3.00;;;;;;;;;;5091858;28;20460;-77
2022/05/03 02:18:06;;;;;;;58.97;3.00;;;;;;;;;;5091096;28;20473;-77
2022/05/03 02:20:38;;;;;;;59.10;3.60;;;;;;;;;;5091676;28;20466;-77
2022/05/03 02:23:09;;;;;;;58.93;3.00;;;;;;;;;;5091943;28;20919;-76
2022/05/03 02:25:42;;;;;;;59.00;3.00;;;;;;;;;;5091850;28;20499;-76
2022/05/03 02:28:15;;;;;;;59.07;3.03;;;;;;;;;;5087105;28;20507;-76
2022/05/03 02:30:45;;;;;;;60.07;3.97;;;;;;;;;;5091997;28;20552;-77
2022/05/03 02:33:19;;;;;;;59.07;3.10;;;;;;;;;;5091724;28;20460;-76
2022/05/03 02:35:49;;;;;;;58.77;3.20;;;;;;;;;;5091879;28;20897;-77
2022/05/03 02:38:20;;;;;;;59.13;3.67;;;;;;;;;;5090890;28;20485;-77
2022/05/03 02:40:51;;;;;;;61.83;5.10;;;;;;;;;;5091648;28;20527;-77
2022/05/03 02:43:19;;;;;;;60.80;4.23;;;;;;;;;;5091589;28;20457;-77
2022/05/03 02:45:51;;;;;;;58.80;2.90;;;;;;;;;;5091625;28;20453;-77
2022/05/03 02:48:20;;;;;;;59.10;3.00;;;;;;;;;;5091109;28;20521;-77
2022/05/03 02:50:53;;;;;;;58.73;3.10;;;;;;;;;;5091491;28;21064;-77
2022/05/03 02:53:24;;;;;;;58.83;3.00;;;;;;;;;;5091509;28;20937;-77
2022/05/03 02:55:52;;;;;;;58.73;2.90;;;;;;;;;;5091506;28;20445;-77
2022/05/03 02:58:32;;;;;;;58.77;2.80;;;;;;;;;;5090557;28;20538;-76
2022/05/03 03:04:06;;;;;;;58.87;3.00;;;;;;;;;;5091317;28;20431;-77
2022/05/03 03:06:34;;;;;;;58.77;3.07;;;;;;;;;;5093859;28;20487;-77
2022/05/03 03:09:02;;;;;;;58.90;2.83;;;;;;;;;;5094558;28;20919;-76
2022/05/03 03:11:32;;;;;;;58.87;3.60;;;;;;;;;;5095166;28;20952;-76
2022/05/03 03:14:07;;;;;;;58.67;2.83;;;;;;;;;;5094882;28;20445;-76
2022/05/03 03:16:40;;;;;;;58.90;3.00;;;;;;;;;;5095247;28;20452;-76
2022/05/03 03:19:15;;;;;;;59.03;3.70;;;;;;;;;;5094123;28;21046;-76
2022/05/03 03:21:43;;;;;;;59.60;3.87;;;;;;;;;;5094939;28;20466;-77
2022/05/03 03:24:10;;;;;;;58.87;3.20;;;;;;;;;;5094806;28;20955;-77
2022/05/03 03:26:39;;;;;;;59.33;3.50;;;;;;;;;;5094755;28;20775;-77
2022/05/03 03:29:08;;;;;;;58.93;2.93;;;;;;;;;;5094261;28;20980;-77
2022/05/03 03:31:37;;;;;;;58.87;3.07;;;;;;;;;;5086687;28;20454;-76
2022/05/03 03:34:06;;;;;;;58.73;2.90;;;;;;;;;;5074966;28;20826;-76
2022/05/03 03:36:33;;;;;;;59.03;3.00;;;;;;;;;;5074454;28;20896;-77
2022/05/03 03:39:00;;;;;;;59.20;3.00;;;;;;;;;;5073293;28;20497;-76
2022/05/03 03:41:27;;;;;;;59.17;2.80;;;;;;;;;;5074447;28;20457;-76
2022/05/03 03:43:54;;;;;;;59.00;3.00;;;;;;;;;;5074441;28;20452;-77
2022/05/03 03:46:22;;;;;;;58.77;2.87;;;;;;;;;;5074224;28;20458;-77
2022/05/03 03:48:51;;;;;;;58.77;3.10;;;;;;;;;;5073503;28;20464;-77
2022/05/03 03:51:18;;;;;;;58.97;3.13;;;;;;;;;;5073919;28;20876;-76
2022/05/03 03:53:45;;;;;;;59.13;3.53;;;;;;;;;;5074364;28;20453;-76
2022/05/03 03:56:12;;;;;;;59.40;3.20;;;;;;;;;;5074043;28;20486;-76
2022/05/03 03:58:40;;;;;;;58.67;2.90;;;;;;;;;;5073100;28;20495;-76
2022/05/03 04:01:08;;;;;;;59.00;2.80;;;;;;;;;;5073856;28;20541;-76
2022/05/03 04:03:36;;;;;;;58.80;2.87;;;;;;;;;;5071577;28;20446;-77
2022/05/03 04:06:05;;;;;;;58.87;2.83;;;;;;;;;;5073853;28;20450;-76
2022/05/03 04:08:32;;;;;;;59.27;3.30;;;;;;;;;;5073471;28;20788;-77
2022/05/03 04:10:59;;;;;;;58.77;2.87;;;;;;;;;;5073806;28;20476;-77
2022/05/03 04:13:26;;;;;;;59.10;3.40;;;;;;;;;;5073665;28;20451;-76
2022/05/03 04:15:54;;;;;;;58.83;3.03;;;;;;;;;;5073571;28;20544;-76
2022/05/03 04:18:21;;;;;;;58.80;2.90;;;;;;;;;;5072106;28;20898;-76
2022/05/03 04:20:48;;;;;;;58.80;3.00;;;;;;;;;;5073596;28;20509;-76
2022/05/03 04:23:23;;;;;;;59.00;3.00;;;;;;;;;;5073346;28;20943;-76
2022/05/03 04:25:50;;;;;;;59.70;3.80;;;;;;;;;;5080888;28;20447;-71
2022/05/03 04:28:17;;;;;;;58.83;2.90;;;;;;;;;;5074139;28;20988;-76
2022/05/03 04:30:45;;;;;;;58.97;3.00;;;;;;;;;;5073335;28;20544;-76
2022/05/03 04:33:12;;;;;;;58.90;2.80;;;;;;;;;;5073526;28;20528;-75
2022/05/03 04:35:39;;;;;;;58.87;3.30;;;;;;;;;;5080202;28;20868;-75
2022/05/03 04:38:06;;;;;;;58.77;3.20;;;;;;;;;;5092766;28;20484;-76
2022/05/03 04:40:34;;;;;;;59.00;3.10;;;;;;;;;;5093234;28;20478;-76
2022/05/03 04:43:01;;;;;;;59.07;2.80;;;;;;;;;;5093407;28;20449;-77
2022/05/03 04:45:29;;;;;;;58.90;2.80;;;;;;;;;;5093577;28;20476;-77
2022/05/03 04:47:56;;;;;;;59.73;3.40;;;;;;;;;;5092944;28;20524;-75
2022/05/03 04:50:23;;;;;;;59.30;3.40;;;;;;;;;;5093756;28;20485;-75
2022/05/03 04:52:51;;;;;;;58.67;3.00;;;;;;;;;;5093717;28;20455;-75
2022/05/03 04:55:18;;;;;;;58.83;3.00;;;;;;;;;;5093127;28;20459;-76
2022/05/03 04:57:46;;;;;;;59.43;3.10;;;;;;;;;;5092701;28;21012;-76
2022/05/03 05:00:14;;;;;;;58.97;3.37;;;;;;;;;;5092780;28;20556;-76
2022/05/03 05:02:41;;;;;;;59.30;3.47;;;;;;;;;;5093078;28;20471;-75
2022/05/03 05:05:08;;;;;;;59.00;3.00;;;;;;;;;;5092802;28;20450;-75
2022/05/03 05:07:36;;;;;;;58.93;2.83;;;;;;;;;;5091347;28;20456;-75
2022/05/03 05:12:49;;;;;;;58.90;3.10;;;;;;;;;;5089239;28;20909;-76
2022/05/03 05:15:16;;;;;;;61.57;3.10;;;;;;;;;;5092863;28;20874;-75
2022/05/03 05:17:43;;;;;;;58.77;3.30;;;;;;;;;;5092194;28;21134;-75
2022/05/03 05:20:11;;;;;;;58.80;2.70;;;;;;;;;;5092617;28;20910;-75
2022/05/03 05:22:38;;;;;;;58.67;2.70;;;;;;;;;;5092409;28;20510;-75
2022/05/03 05:25:05;;;;;;;59.93;4.60;;;;;;;;;;5092366;28;20481;-75
2022/05/03 05:27:32;;;;;;;58.70;3.20;;;;;;;;;;5091634;28;20448;-75
2022/05/03 05:30:01;;;;;;;58.60;2.87;;;;;;;;;;5091667;28;20573;-76
2022/05/03 05:32:28;;;;;;;58.63;2.90;;;;;;;;;;5092196;28;20495;-75
2022/05/03 05:34:55;;;;;;;58.67;3.00;;;;;;;;;;5092550;28;20450;-76
2022/05/03 05:37:22;;;;;;;58.90;2.90;;;;;;;;;;5091741;28;20442;-75
2022/05/03 05:39:49;;;;;;;58.93;3.00;;;;;;;;;;5091909;28;20559;-76
2022/05/03 05:42:17;;;;;;;70.33;3.77;;;;;;;;;;5092056;28;20446;-75
2022/05/03 05:44:44;;;;;;;59.80;3.33;;;;;;;;;;5076117;28;20444;-76
2022/05/03 05:47:13;;;;;;;58.67;2.83;;;;;;;;;;5071513;28;20452;-75
2022/05/03 05:49:40;;;;;;;58.57;2.80;;;;;;;;;;5071710;28;21002;-76
2022/05/03 05:54:52;;;;;;;62.90;4.17;;;;;;;;;;5071809;28;20933;-76
2022/05/03 05:57:20;;;;;;;58.47;2.80;;;;;;;;;;5071222;28;20974;-76
2022/05/03 05:59:47;;;;;;;58.87;2.87;;;;;;;;;;5071668;28;20516;-76
2022/05/03 06:02:15;;;;;;;59.30;3.30;;;;;;;;;;5071663;28;20451;-76
2022/05/03 06:04:42;;;;;;;59.00;2.93;;;;;;;;;;5071901;28;20880;-76
2022/05/03 06:07:10;;;;;;;58.67;2.70;;;;;;;;;;5071366;28;20443;-76
2022/05/03 06:09:37;;;;;;;59.07;3.90;;;;;;;;;;5071461;28;20815;-76
2022/05/03 06:12:04;;;;;;;58.47;2.70;;;;;;;;;;5071609;28;20479;-76
2022/05/03 06:14:32;;;;;;;58.70;2.70;;;;;;;;;;5070508;28;20449;-76
2022/05/03 06:16:59;;;;;;;58.80;3.00;;;;;;;;;;5068873;28;20822;-76
2022/05/03 06:19:28;;;;;;;66.00;3.70;;;;;;;;;;5077913;28;20482;-76
2022/05/03 06:21:55;;;;;;;59.73;3.60;;;;;;;;;;5091807;28;20456;-76
2022/05/03 06:24:22;;;;;;;58.47;2.97;;;;;;;;;;5091620;28;20454;-77
2022/05/03 06:26:49;;;;;;;58.47;2.70;;;;;;;;;;5088718;28;20453;-77
2022/05/03 06:29:16;;;;;;;58.70;2.80;;;;;;;;;;5091073;28;21162;-77
2022/05/03 06:31:44;;;;;;;58.57;2.53;;;;;;;;;;5091436;28;20946;-76
2022/05/03 06:34:12;;;;;;;58.47;2.70;;;;;;;;;;5091734;28;20533;-76
2022/05/03 06:36:40;;;;;;;59.27;4.20;;;;;;;;;;5091632;28;20533;-76
2022/05/03 06:39:07;;;;;;;59.10;3.73;;;;;;;;;;5090977;28;20490;-76
2022/05/03 06:41:34;;;;;;;60.70;3.57;;;;;;;;;;5093960;28;20442;-77
2022/05/03 06:44:02;;;;;;;58.57;3.00;;;;;;;;;;5095472;28;20450;-76
2022/05/03 06:46:30;;;;;;;58.47;3.13;;;;;;;;;;5095324;28;20453;-76
2022/05/03 06:48:57;;;;;;;59.60;3.30;;;;;;;;;;5094669;28;20542;-78
2022/05/03 06:51:24;;;;;;;58.30;2.60;;;;;;;;;;5095350;28;20451;-76
2022/05/03 06:53:53;;;;;;;59.20;2.90;;;;;;;;;;5095445;28;20481;-77
2022/05/03 06:56:20;;;;;;;58.97;2.90;;;;;;;;;;5098761;28;20430;-73
2022/05/03 06:58:47;;;;;;;58.37;2.70;;;;;;;;;;5091942;28;20798;-76
2022/05/03 07:01:15;;;;;;;59.50;4.47;;;;;;;;;;5095600;28;20472;-77
2022/05/03 07:03:43;;;;;;;58.47;3.00;;;;;;;;;;5095248;28;20954;-76
2022/05/03 07:06:11;;;;;;;58.53;2.90;;;;;;;;;;5095356;28;20512;-76
2022/05/03 07:08:38;;;;;;;59.60;3.83;;;;;;;;;;5094568;28;20446;-76
2022/05/03 07:11:07;;;;;;;58.47;2.60;;;;;;;;;;5095035;28;20477;-76
2022/05/03 07:13:34;;;;;;;58.90;2.90;;;;;;;;;;5094790;28;20935;-76
2022/05/03 07:16:02;;;;;;;58.67;3.13;;;;;;;;;;5095231;28;20458;-76
2022/05/03 07:23:58;;;;;;;58.70;3.20;;;;;;;;;;5094779;28;20422;-76
2022/05/03 07:26:27;;;;;;;58.80;3.43;;;;;;;;;;5095093;28;20528;-76
2022/05/03 07:28:54;;;;;;;58.33;2.90;;;;;;;;;;5089950;28;20503;-76
2022/05/03 07:31:22;;;;;;;58.87;3.50;;;;;;;;;;5094705;28;20530;-76
2022/05/03 07:33:49;;;;;;;59.00;3.80;;;;;;;;;;5094598;28;20474;-77
2022/05/03 07:36:16;;;;;;;58.50;2.97;;;;;;;;;;5094588;28;20491;-77
2022/05/03 07:38:44;;;;;;;58.80;3.13;;;;;;;;;;5093681;28;20585;-77
2022/05/03 07:41:11;;;;;;;59.43;4.00;;;;;;;;;;5094609;28;20457;-77
2022/05/03 07:43:40;;;;;;;58.67;3.50;;;;;;;;;;5094590;28;20451;-76
2022/05/03 07:46:07;;;;;;;58.97;3.30;;;;;;;;;;5094904;28;20460;-77
2022/05/03 07:48:35;;;;;;;59.30;4.10;;;;;;;;;;5093825;28;20730;-77
2022/05/03 07:51:02;;;;;;;59.13;3.93;;;;;;;;;;5094346;28;20569;-77
2022/05/03 07:53:29;;;;;;;58.90;3.33;;;;;;;;;;5093396;28;20834;-77
2022/05/03 07:55:56;;;;;;;58.87;3.17;;;;;;;;;;5094100;28;20538;-77
2022/05/03 07:58:23;;;;;;;59.17;3.87;;;;;;;;;;5093470;28;20987;-77
2022/05/03 08:00:52;;;;;;;58.93;3.90;;;;;;;;;;5090011;28;20549;-77
2022/05/03 08:03:21;;;;;;;60.70;4.20;;;;;;;;;;5093952;28;21018;-76
2022/05/03 08:05:48;;;;;;;59.23;3.90;;;;;;;;;;5094138;28;20566;-76
2022/05/03 08:08:16;;;;;;;58.57;3.10;;;;;;;;;;5093341;28;20452;-77
2022/05/03 08:10:45;;;;;;;59.10;3.30;;;;;;;;;;5094004;28;20471;-77
2022/05/03 08:13:12;;;;;;;58.43;3.00;;;;;;;;;;5094093;28;20481;-77
2022/05/03 08:15:39;;;;;;;60.00;3.80;;;;;;;;;;5094214;28;20464;-77
2022/05/03 08:18:08;;;;;;;59.30;4.13;;;;;;;;;;5092917;28;20828;-77
2022/05/03 08:20:36;;;;;;;58.90;3.33;;;;;;;;;;5093814;28;20489;-77
2022/05/03 08:23:03;;;;;;;58.53;2.97;;;;;;;;;;5093509;28;20453;-77
2022/05/03 08:25:32;;;;;;;60.00;4.23;;;;;;;;;;5093673;28;20498;-77
2022/05/03 08:27:59;;;;;;;58.80;3.77;;;;;;;;;;5092957;28;20457;-77
2022/05/03 08:30:26;;;;;;;59.20;3.50;;;;;;;;;;5093331;28;20458;-77
2022/05/03 08:32:53;;;;;;;60.87;4.20;;;;;;;;;;5077217;28;20869;-77
2022/05/03 08:35:24;;;;;;;58.97;3.10;;;;;;;;;;5073225;28;20489;-77
2022/05/03 08:43:21;;;;;;;60.53;3.83;;;;;;;;;;5076384;28;20419;-76
2022/05/03 08:45:51;;;;;;;59.17;3.60;;;;;;;;;;5073118;28;20454;-76
2022/05/03 08:48:19;;;;;;;59.20;3.37;;;;;;;;;;5072341;28;20498;-76
2022/05/03 08:50:47;;;;;;;61.40;4.37;;;;;;;;;;5073145;28;20998;-76
2022/05/03 08:53:15;;;;;;;59.47;3.93;;;;;;;;;;5072662;28;20447;-76
2022/05/03 08:55:42;;;;;;;59.07;4.00;;;;;;;;;;5072710;28;20694;-77
2022/05/03 08:58:09;;;;;;;59.87;4.40;;;;;;;;;;5072013;28;20535;-76
2022/05/03 09:00:37;;;;;;;59.20;3.73;;;;;;;;;;5072557;28;20502;-76
2022/05/03 09:03:05;;;;;;;58.87;3.77;;;;;;;;;;5070523;28;20555;-77
2022/05/03 09:05:32;;;;;;;59.37;3.60;;;;;;;;;;5072449;28;20836;-76
2022/05/03 09:08:04;;;;;;;60.80;3.47;;;;;;;;;;5071714;28;20466;-77
2022/05/03 09:10:32;;;;;;;59.20;3.67;;;;;;;;;;5072689;28;20465;-75
2022/05/03 09:13:17;;;;;;;59.57;4.30;;;;;;;;;;5072286;28;20446;-74
2022/05/03 09:15:44;;;;;;;62.17;5.97;;;;;;;;;;5072371;28;20489;-74
2022/05/03 09:18:20;;;;;;;68.23;6.53;;;;;;;;;;5071666;28;20462;-75
2022/05/03 09:23:49;;;;;;;59.00;3.40;;;;;;;;;;5072070;28;20805;-74
2022/05/03 09:26:17;;;;;;;61.17;3.97;;;;;;;;;;5072509;28;20447;-74
2022/05/03 09:28:45;;;;;;;59.20;3.87;;;;;;;;;;5071539;28;20451;-74
2022/05/03 09:31:12;;;;;;;63.37;5.93;;;;;;;;;;5072315;28;20921;-75
2022/05/03 09:33:39;;;;;;;66.97;5.73;;;;;;;;;;5072222;28;20483;-75
2022/05/03 09:36:09;;;;;;;59.30;3.40;;;;;;;;;;5069035;28;20895;-75
2022/05/03 09:38:46;;;;;;;59.37;3.67;;;;;;;;;;5071723;28;20450;-75
2022/05/03 09:41:15;;;;;;;60.70;3.60;;;;;;;;;;5072104;28;20449;-75
2022/05/03 09:43:57;;;;;;;59.17;3.67;;;;;;;;;;5071958;28;20454;-75
2022/05/03 09:46:24;;;;;;;59.80;3.67;;;;;;;;;;5071658;28;20472;-75
2022/05/03 09:48:52;;;;;;;58.67;3.10;;;;;;;;;;5071261;28;20482;-74
2022/05/03 09:51:20;;;;;;;60.17;4.40;;;;;;;;;;5071604;28;20494;-74
2022/05/03 09:53:58;;;;;;;59.03;3.47;;;;;;;;;;5071672;28;20532;-74
2022/05/03 09:56:25;;;;;;;60.37;4.00;;;;;;;;;;5071507;28;20455;-75
2022/05/03 09:58:56;;;;;;;61.73;4.57;;;;;;;;;;5070594;28;20518;-75
2022/05/03 10:01:24;;;;;;;60.03;3.90;;;;;;;;;;5071571;28;20456;-74
2022/05/03 10:03:51;;;;;;;59.67;4.30;;;;;;;;;;5071451;28;20490;-75
2022/05/03 10:06:20;;;;;;;58.80;3.17;;;;;;;;;;5070368;28;20443;-75
2022/05/03 10:08:48;;;;;;;58.50;2.77;;;;;;;;;;5084238;28;20457;-74
2022/05/03 10:11:18;;;;;;;59.77;3.53;;;;;;;;;;5091671;28;20529;-75
2022/05/03 10:13:45;;;;;;;60.70;3.53;;;;;;;;;;5091603;28;20451;-74
2022/05/03 10:21:49;;;;;;;58.53;2.97;;;;;;;;;;5091540;28;20941;-71
2022/05/03 10:24:16;;;;;;;85.67;10.47;;;;;;;;;;5091980;28;20442;-75
2022/05/03 10:27:01;;;;;;;58.50;3.30;;;;;;;;;;5091068;28;20503;-75
2022/05/03 10:29:29;;;;;;;58.30;3.23;;;;;;;;;;5090939;28;20470;-75
2022/05/03 10:32:00;;;;;;;60.47;4.43;;;;;;;;;;5091495;28;20529;-76
2022/05/03 10:34:43;;;;;;;62.13;3.17;;;;;;;;;;5091081;28;20447;-77
2022/05/03 10:37:11;;;;;;;58.40;2.67;;;;;;;;;;5090365;28;20594;-77
2022/05/03 10:39:46;;;;;;;59.17;2.70;;;;;;;;;;5088024;28;20500;-77
2022/05/03 10:42:15;;;;;;;57.57;2.67;;;;;;;;;;5091351;28;20925;-76
2022/05/03 10:44:47;;;;;;;57.87;2.67;;;;;;;;;;5091780;28;20454;-75
2022/05/03 10:47:15;;;;;;;57.97;2.73;;;;;;;;;;5090969;28;20490;-76
2022/05/03 10:50:01;;;;;;;58.70;3.10;;;;;;;;;;5090562;28;20562;-76
2022/05/03 10:52:28;;;;;;;58.10;3.00;;;;;;;;;;5091548;28;20529;-76
2022/05/03 10:55:07;;;;;;;58.23;2.90;;;;;;;;;;5091458;28;20541;-76
2022/05/03 10:57:56;;;;;;;57.90;2.93;;;;;;;;;;5090844;28;20841;-76
2022/05/03 11:00:38;;;;;;;58.10;3.40;;;;;;;;;;5090779;28;20577;-76
2022/05/03 11:03:19;;;;;;;57.90;3.40;;;;;;;;;;5091109;28;20812;-76
2022/05/03 11:06:07;;;;;;;58.27;3.20;;;;;;;;;;5091286;28;20543;-77
2022/05/03 11:08:35;;;;;;;59.10;3.20;;;;;;;;;;5090514;28;20453;-76
2022/05/03 11:11:02;;;;;;;58.60;3.57;;;;;;;;;;5086472;28;20865;-77
2022/05/03 11:13:41;;;;;;;58.77;2.97;;;;;;;;;;5091654;28;20445;-77
2022/05/03 11:16:21;;;;;;;59.87;3.50;;;;;;;;;;5091232;28;20541;-76
2022/05/03 11:18:48;;;;;;;58.80;3.50;;;;;;;;;;5090396;28;20950;-75
2022/05/03 11:21:15;;;;;;;58.57;2.80;;;;;;;;;;5090837;28;20486;-76
2022/05/03 11:23:48;;;;;;;58.17;3.37;;;;;;;;;;5090878;28;20446;-76
2022/05/03 11:26:16;;;;;;;58.77;3.70;;;;;;;;;;5090780;28;20447;-76
2022/05/03 11:28:46;;;;;;;58.50;3.23;;;;;;;;;;5092825;28;20460;-76
2022/05/03 11:31:14;;;;;;;59.47;3.97;;;;;;;;;;5094748;28;20441;-76
2022/05/03 11:33:49;;;;;;;58.17;2.90;;;;;;;;;;5094215;28;20540;-75
2022/05/03 11:36:16;;;;;;;58.47;3.40;;;;;;;;;;5094728;28;20457;-76
2022/05/03 11:38:43;;;;;;;58.40;2.67;;;;;;;;;;5093566;28;21042;-76
2022/05/03 11:41:11;;;;;;;59.30;3.40;;;;;;;;;;5093538;28;20486;-76
2022/05/03 11:43:38;;;;;;;58.60;3.27;;;;;;;;;;5090933;28;20486;-76
2022/05/03 11:46:06;;;;;;;59.37;3.40;;;;;;;;;;5094560;28;20501;-76
2022/05/03 11:48:34;;;;;;;58.53;2.47;;;;;;;;;;5092860;28;20453;-76
2022/05/03 11:56:31;;;;;;;58.53;3.10;;;;;;;;;;5094088;28;20934;-75
2022/05/03 11:58:58;;;;;;;58.80;3.30;;;;;;;;;;5093198;28;20546;-75
2022/05/03 12:01:33;;;;;;;58.27;2.90;;;;;;;;;;5094324;28;20494;-76
2022/05/03 12:04:02;;;;;;;58.63;2.90;;;;;;;;;;5094137;28;20477;-75
2022/05/03 12:06:43;;;;;;;60.10;4.30;;;;;;;;;;5093809;28;20454;-76
2022/05/03 12:09:11;;;;;;;59.30;3.20;;;;;;;;;;5092383;28;20502;-75
2022/05/03 12:12:42;;;;;;;60.20;3.63;;;;;;;;;;5093862;28;20445;-76
2022/05/03 12:14:34;;;;;;;59.17;3.97;;;;;;;;;;5092668;28;20446;-76
2022/05/03 12:17:03;;;;;;;59.20;3.80;;;;;;;;;;5090604;28;20446;-76
2022/05/03 12:19:33;;;;;;;59.40;3.80;;;;;;;;;;5093070;28;20878;-75
2022/05/03 12:22:08;;;;;;;58.50;3.37;;;;;;;;;;5093302;28;20974;-75
2022/05/03 12:24:37;;;;;;;60.50;4.07;;;;;;;;;;5093632;28;20532;-75
2022/05/03 12:27:16;;;;;;;59.20;2.87;;;;;;;;;;5092748;28;20461;-75
2022/05/03 12:29:44;;;;;;;62.70;4.80;;;;;;;;;;5093464;28;20479;-76
2022/05/03 12:32:16;;;;;;;59.30;3.37;;;;;;;;;;5093356;28;20541;-75
2022/05/03 12:34:58;;;;;;;58.87;3.50;;;;;;;;;;5093714;28;20453;-75
2022/05/03 12:37:25;;;;;;;58.50;2.90;;;;;;;;;;5092928;28;20822;-76
2022/05/03 12:39:52;;;;;;;62.20;3.67;;;;;;;;;;5093656;28;20896;-72
2022/05/03 12:42:19;;;;;;;58.10;3.03;;;;;;;;;;5099860;28;20529;-75
2022/05/03 12:44:51;;;;;;;58.47;3.23;;;;;;;;;;5093150;28;20466;-76
2022/05/03 12:47:20;;;;;;;58.53;3.40;;;;;;;;;;5091555;28;20492;-75
2022/05/03 12:49:47;;;;;;;58.90;3.07;;;;;;;;;;5071168;28;20479;-75
2022/05/03 12:52:14;;;;;;;59.10;3.30;;;;;;;;;;5072400;28;20447;-75
2022/05/03 12:54:42;;;;;;;58.73;3.50;;;;;;;;;;5072423;28;20447;-75
2022/05/03 12:59:54;;;;;;;59.40;3.33;;;;;;;;;;5072121;28;20514;-75
2022/05/03 13:02:23;;;;;;;60.37;3.47;;;;;;;;;;5072489;28;20476;-75
2022/05/03 13:04:50;;;;;;;59.17;3.20;;;;;;;;;;5072714;28;20833;-75
2022/05/03 13:07:18;;;;;;;58.77;3.30;;;;;;;;;;5071929;28;20448;-75
2022/05/03 13:09:45;;;;;;;59.67;3.67;;;;;;;;;;5072284;28;20470;-75
2022/05/03 13:12:12;;;;;;;59.77;3.30;;;;;;;;;;5072714;28;20487;-75
2022/05/03 13:14:40;;;;;;;60.40;3.80;;;;;;;;;;5072770;28;20454;-74
2022/05/03 13:17:07;;;;;;;59.80;4.30;;;;;;;;;;5072160;28;20458;-75
2022/05/03 13:19:35;;;;;;;60.17;4.17;;;;;;;;;;5071962;28;20478;-75
2022/05/03 13:22:03;;;;;;;58.80;3.50;;;;;;;;;;5069493;28;20483;-75
2022/05/03 13:24:30;;;;;;;61.17;4.27;;;;;;;;;;5072170;28;20461;-75
2022/05/03 13:26:58;;;;;;;60.47;5.00;;;;;;;;;;5072545;28;20458;-75
2022/05/03 13:29:25;;;;;;;60.47;4.23;;;;;;;;;;5071550;28;20470;-75
2022/05/03 13:31:53;;;;;;;64.87;4.47;;;;;;;;;;5072484;28;20869;-77
2022/05/03 13:34:21;;;;;;;60.70;4.23;;;;;;;;;;5072007;28;20522;-77
2022/05/03 13:42:19;;;;;;;61.20;3.37;;;;;;;;;;5072131;28;20483;-77
2022/05/03 13:44:46;;;;;;;60.10;3.40;;;;;;;;;;5072061;28;21026;-77
2022/05/03 13:47:14;;;;;;;59.37;3.70;;;;;;;;;;5071061;28;20532;-76
2022/05/03 13:49:42;;;;;;;58.97;2.93;;;;;;;;;;5071704;28;20478;-76
2022/05/03 13:52:10;;;;;;;58.87;2.90;;;;;;;;;;5070794;28;20446;-76
2022/05/03 13:54:38;;;;;;;63.57;5.63;;;;;;;;;;5088316;28;20445;-76
2022/05/03 13:57:05;;;;;;;65.17;6.97;;;;;;;;;;5092077;28;20442;-76
2022/05/03 13:59:33;;;;;;;65.60;7.43;;;;;;;;;;5092141;28;20548;-76
2022/05/03 14:02:00;;;;;;;61.50;6.20;;;;;;;;;;5091832;28;20646;-76
2022/05/03 14:04:29;;;;;;;69.53;7.30;;;;;;;;;;5091817;28;20481;-77
2022/05/03 14:06:56;;;;;;;66.87;7.37;;;;;;;;;;5092361;28;20459;-77
2022/05/03 14:09:25;;;;;;;63.47;7.20;;;;;;;;;;5091286;28;20914;-77
2022/05/03 14:11:52;;;;;;;63.40;7.40;;;;;;;;;;5091942;28;20450;-76
2022/05/03 14:14:19;;;;;;;67.27;9.13;;;;;;;;;;5091617;28;20942;-77
2022/05/03 14:16:46;;;;;;;64.70;7.07;;;;;;;;;;5092107;28;20456;-77
2022/05/03 14:19:13;;;;;;;63.87;6.83;;;;;;;;;;5091194;28;20566;-76
2022/05/03 14:21:40;;;;;;;68.40;6.13;;;;;;;;;;5091959;28;20839;-77
2022/05/03 14:24:08;;;;;;;66.47;4.97;;;;;;;;;;5091769;28;20498;-77
2022/05/03 14:26:37;;;;;;;59.90;3.60;;;;;;;;;;5089072;28;20524;-77
2022/05/03 14:29:04;;;;;;;60.37;4.10;;;;;;;;;;5091423;28;20465;-77
2022/05/03 14:31:34;;;;;;;59.70;3.70;;;;;;;;;;5091866;28;20441;-77
2022/05/03 14:34:02;;;;;;;59.30;3.67;;;;;;;;;;5091967;28;20449;-77
2022/05/03 14:36:29;;;;;;;58.77;2.80;;;;;;;;;;5091650;28;21008;-77
2022/05/03 14:38:57;;;;;;;59.03;3.53;;;;;;;;;;5090991;28;20452;-77
2022/05/03 14:41:24;;;;;;;59.37;2.90;;;;;;;;;;5091435;28;20584;-77
2022/05/03 14:43:52;;;;;;;59.90;3.87;;;;;;;;;;5091837;28;20493;-77
2022/05/03 14:46:20;;;;;;;58.97;3.00;;;;;;;;;;5091733;28;20533;-77
2022/05/03 14:48:47;;;;;;;60.10;3.70;;;;;;;;;;5090873;28;20454;-77
2022/05/03 14:51:14;;;;;;;61.03;3.57;;;;;;;;;;5096792;28;20481;-76
2022/05/03 14:53:41;;;;;;;58.83;3.40;;;;;;;;;;5096097;28;20553;-77
2022/05/03 15:04:24;;;;;;;59.30;3.10;;;;;;;;;;5074962;28;20963;-77
2022/05/03 15:06:52;;;;;;;58.90;3.20;;;;;;;;;;5075087;28;20457;-77
2022/05/03 15:09:19;;;;;;;58.90;2.63;;;;;;;;;;5074524;28;20527;-77
2022/05/03 15:11:47;;;;;;;59.50;3.20;;;;;;;;;;5075099;28;20841;-77
2022/05/03 15:14:15;;;;;;;58.27;2.80;;;;;;;;;;5074848;28;20538;-77
2022/05/03 15:16:42;;;;;;;58.80;3.00;;;;;;;;;;5074834;28;20546;-77
2022/05/03 15:19:09;;;;;;;59.07;3.10;;;;;;;;;;5074073;28;20998;-77
2022/05/03 15:21:37;;;;;;;58.27;2.77;;;;;;;;;;5074886;28;20493;-77
2022/05/03 15:26:49;;;;;;;59.00;2.80;;;;;;;;;;5073439;28;20426;-78
2022/05/03 15:29:18;;;;;;;59.03;2.90;;;;;;;;;;5092548;28;20473;-77
2022/05/03 15:31:45;;;;;;;58.40;2.67;;;;;;;;;;5095136;28;20529;-77
2022/05/03 15:34:12;;;;;;;59.00;2.53;;;;;;;;;;5094939;28;20542;-77
2022/05/03 15:36:40;;;;;;;58.20;2.27;;;;;;;;;;5094962;28;20440;-77
2022/05/03 15:39:08;;;;;;;59.97;2.97;;;;;;;;;;5093926;28;20525;-77